sensor_id;sensor_type;location;lat;lon;timestamp;P1;durP1;ratioP1;P2;durP2;ratioP2
8825;SDS011;4449;50.872;4.714;2024-03-29T00:03:53;3.33;;;2.20;;
8825;SDS011;4449;50.872;4.714;2024-03-29T00:06:20;3.08;;;1.67;;
8825;SDS011;4449;50.872;4.714;2024-03-29T00:08:46;4.03;;;1.88;;
8825;SDS011;4449;50.872;4.714;2024-03-29T00:11:13;2.23;;;1.70;;
8825;SDS011;4449;50.872;4.714;2024-03-29T00:13:40;2.97;;;1.90;;
8825;SDS011;4449;50.872;4.714;2024-03-29T00:16:06;2.65;;;1.70;;
8825;SDS011;4449;50.872;4.714;2024-03-29T00:18:33;3.67;;;1.77;;
8825;SDS011;4449;50.872;4.714;2024-03-29T00:21:01;3.95;;;1.80;;
8825;SDS011;4449;50.872;4.714;2024-03-29T00:23:28;2.72;;;1.80;;
8825;SDS011;4449;50.872;4.714;2024-03-29T00:25:55;1.83;;;1.53;;
8825;SDS011;4449;50.872;4.714;2024-03-29T00:28:22;2.83;;;1.65;;
8825;SDS011;4449;50.872;4.714;2024-03-29T00:30:48;4.25;;;1.92;;
8825;SDS011;4449;50.872;4.714;2024-03-29T00:33:15;3.22;;;1.75;;
8825;SDS011;4449;50.872;4.714;2024-03-29T00:35:42;2.83;;;1.63;;
8825;SDS011;4449;50.872;4.714;2024-03-29T00:38:10;3.47;;;1.70;;
8825;SDS011;4449;50.872;4.714;2024-03-29T00:40:36;2.23;;;1.60;;
8825;SDS011;4449;50.872;4.714;2024-03-29T00:43:03;2.63;;;1.60;;
8825;SDS011;4449;50.872;4.714;2024-03-29T00:45:30;2.10;;;1.50;;
8825;SDS011;4449;50.872;4.714;2024-03-29T00:47:56;1.95;;;1.50;;
8825;SDS011;4449;50.872;4.714;2024-03-29T00:50:23;2.37;;;1.40;;
8825;SDS011;4449;50.872;4.714;2024-03-29T00:52:50;1.63;;;1.50;;
8825;SDS011;4449;50.872;4.714;2024-03-29T00:55:18;1.67;;;1.58;;
8825;SDS011;4449;50.872;4.714;2024-03-29T00:57:45;2.20;;;1.63;;
8825;SDS011;4449;50.872;4.714;2024-03-29T01:00:12;3.20;;;1.95;;
8825;SDS011;4449;50.872;4.714;2024-03-29T01:02:38;2.80;;;1.70;;
8825;SDS011;4449;50.872;4.714;2024-03-29T01:05:05;2.28;;;1.50;;
8825;SDS011;4449;50.872;4.714;2024-03-29T01:07:32;3.53;;;1.73;;
8825;SDS011;4449;50.872;4.714;2024-03-29T01:09:59;2.80;;;1.77;;
8825;SDS011;4449;50.872;4.714;2024-03-29T01:12:27;2.88;;;1.55;;
8825;SDS011;4449;50.872;4.714;2024-03-29T01:14:54;3.95;;;1.58;;
8825;SDS011;4449;50.872;4.714;2024-03-29T01:17:21;3.08;;;1.55;;
8825;SDS011;4449;50.872;4.714;2024-03-29T01:19:47;2.35;;;1.50;;
8825;SDS011;4449;50.872;4.714;2024-03-29T01:22:14;2.95;;;1.60;;
8825;SDS011;4449;50.872;4.714;2024-03-29T01:24:41;1.58;;;1.45;;
8825;SDS011;4449;50.872;4.714;2024-03-29T01:27:07;2.30;;;1.40;;
8825;SDS011;4449;50.872;4.714;2024-03-29T01:29:36;2.47;;;1.50;;
8825;SDS011;4449;50.872;4.714;2024-03-29T01:32:02;2.17;;;1.63;;
8825;SDS011;4449;50.872;4.714;2024-03-29T01:34:29;1.60;;;1.50;;
8825;SDS011;4449;50.872;4.714;2024-03-29T01:36:56;1.97;;;1.40;;
8825;SDS011;4449;50.872;4.714;2024-03-29T01:39:23;2.03;;;1.60;;
8825;SDS011;4449;50.872;4.714;2024-03-29T01:41:50;2.78;;;1.50;;
8825;SDS011;4449;50.872;4.714;2024-03-29T01:44:16;2.28;;;1.58;;
8825;SDS011;4449;50.872;4.714;2024-03-29T01:46:46;4.00;;;1.52;;
8825;SDS011;4449;50.872;4.714;2024-03-29T01:49:14;1.70;;;1.30;;
8825;SDS011;4449;50.872;4.714;2024-03-29T01:51:42;2.42;;;1.40;;
8825;SDS011;4449;50.872;4.714;2024-03-29T01:54:11;1.50;;;1.40;;
8825;SDS011;4449;50.872;4.714;2024-03-29T01:56:39;2.50;;;1.35;;
8825;SDS011;4449;50.872;4.714;2024-03-29T01:59:08;1.77;;;1.30;;
8825;SDS011;4449;50.872;4.714;2024-03-29T02:01:40;2.40;;;1.23;;
8825;SDS011;4449;50.872;4.714;2024-03-29T02:04:10;3.97;;;1.60;;
8825;SDS011;4449;50.872;4.714;2024-03-29T02:06:38;1.38;;;1.20;;
8825;SDS011;4449;50.872;4.714;2024-03-29T02:09:06;1.70;;;1.10;;
8825;SDS011;4449;50.872;4.714;2024-03-29T02:11:33;1.42;;;1.25;;
8825;SDS011;4449;50.872;4.714;2024-03-29T02:14:03;1.77;;;1.30;;
8825;SDS011;4449;50.872;4.714;2024-03-29T02:16:32;1.70;;;1.25;;
8825;SDS011;4449;50.872;4.714;2024-03-29T02:18:59;1.95;;;1.13;;
8825;SDS011;4449;50.872;4.714;2024-03-29T02:21:28;1.23;;;1.13;;
8825;SDS011;4449;50.872;4.714;2024-03-29T02:24:04;1.55;;;1.35;;
8825;SDS011;4449;50.872;4.714;2024-03-29T02:26:32;1.05;;;0.95;;
8825;SDS011;4449;50.872;4.714;2024-03-29T02:29:01;2.33;;;1.42;;
8825;SDS011;4449;50.872;4.714;2024-03-29T02:31:29;1.60;;;1.45;;
8825;SDS011;4449;50.872;4.714;2024-03-29T02:33:57;1.40;;;1.30;;
8825;SDS011;4449;50.872;4.714;2024-03-29T02:36:25;1.30;;;1.20;;
8825;SDS011;4449;50.872;4.714;2024-03-29T02:38:53;1.30;;;1.20;;
8825;SDS011;4449;50.872;4.714;2024-03-29T02:41:22;2.10;;;1.40;;
8825;SDS011;4449;50.872;4.714;2024-03-29T02:43:51;1.92;;;1.40;;
8825;SDS011;4449;50.872;4.714;2024-03-29T02:46:19;1.85;;;1.63;;
8825;SDS011;4449;50.872;4.714;2024-03-29T02:48:47;3.60;;;1.80;;
8825;SDS011;4449;50.872;4.714;2024-03-29T02:51:13;2.80;;;1.80;;
8825;SDS011;4449;50.872;4.714;2024-03-29T02:53:41;3.45;;;1.60;;
8825;SDS011;4449;50.872;4.714;2024-03-29T02:56:08;1.58;;;1.40;;
8825;SDS011;4449;50.872;4.714;2024-03-29T02:58:37;2.28;;;1.60;;
8825;SDS011;4449;50.872;4.714;2024-03-29T03:01:05;2.53;;;1.40;;
8825;SDS011;4449;50.872;4.714;2024-03-29T03:03:32;4.00;;;1.80;;
8825;SDS011;4449;50.872;4.714;2024-03-29T03:06:00;3.20;;;1.77;;
8825;SDS011;4449;50.872;4.714;2024-03-29T03:08:27;3.97;;;1.70;;
8825;SDS011;4449;50.872;4.714;2024-03-29T03:11:12;3.72;;;1.70;;
8825;SDS011;4449;50.872;4.714;2024-03-29T03:13:41;2.25;;;1.70;;
8825;SDS011;4449;50.872;4.714;2024-03-29T03:16:09;4.28;;;1.77;;
8825;SDS011;4449;50.872;4.714;2024-03-29T03:18:37;3.30;;;1.77;;
8825;SDS011;4449;50.872;4.714;2024-03-29T03:21:04;2.28;;;1.50;;
8825;SDS011;4449;50.872;4.714;2024-03-29T03:23:32;2.30;;;1.70;;
8825;SDS011;4449;50.872;4.714;2024-03-29T03:26:00;2.55;;;1.80;;
8825;SDS011;4449;50.872;4.714;2024-03-29T03:28:29;2.75;;;1.63;;
8825;SDS011;4449;50.872;4.714;2024-03-29T03:30:58;3.28;;;1.60;;
8825;SDS011;4449;50.872;4.714;2024-03-29T03:33:25;1.70;;;1.60;;
8825;SDS011;4449;50.872;4.714;2024-03-29T03:35:53;2.00;;;1.80;;
8825;SDS011;4449;50.872;4.714;2024-03-29T03:38:19;2.58;;;1.70;;
8825;SDS011;4449;50.872;4.714;2024-03-29T03:40:47;2.80;;;2.13;;
8825;SDS011;4449;50.872;4.714;2024-03-29T03:43:14;1.98;;;1.70;;
8825;SDS011;4449;50.872;4.714;2024-03-29T03:45:42;3.03;;;1.90;;
8825;SDS011;4449;50.872;4.714;2024-03-29T03:48:11;2.47;;;1.50;;
8825;SDS011;4449;50.872;4.714;2024-03-29T03:50:39;2.20;;;1.77;;
8825;SDS011;4449;50.872;4.714;2024-03-29T03:53:06;2.73;;;1.40;;
8825;SDS011;4449;50.872;4.714;2024-03-29T03:55:35;2.47;;;1.65;;
8825;SDS011;4449;50.872;4.714;2024-03-29T03:58:02;1.60;;;1.50;;
8825;SDS011;4449;50.872;4.714;2024-03-29T04:00:30;2.47;;;1.70;;
8825;SDS011;4449;50.872;4.714;2024-03-29T04:02:56;2.72;;;1.50;;
8825;SDS011;4449;50.872;4.714;2024-03-29T04:05:26;2.53;;;1.70;;
8825;SDS011;4449;50.872;4.714;2024-03-29T04:07:52;1.95;;;1.65;;
8825;SDS011;4449;50.872;4.714;2024-03-29T04:10:20;2.25;;;1.55;;
8825;SDS011;4449;50.872;4.714;2024-03-29T04:12:47;1.58;;;1.30;;
8825;SDS011;4449;50.872;4.714;2024-03-29T04:15:14;1.58;;;1.48;;
8825;SDS011;4449;50.872;4.714;2024-03-29T04:17:41;3.08;;;1.60;;
8825;SDS011;4449;50.872;4.714;2024-03-29T04:20:09;1.75;;;1.63;;
8825;SDS011;4449;50.872;4.714;2024-03-29T04:22:37;1.60;;;1.50;;
8825;SDS011;4449;50.872;4.714;2024-03-29T04:25:05;1.67;;;1.50;;
8825;SDS011;4449;50.872;4.714;2024-03-29T04:27:32;2.78;;;1.40;;
8825;SDS011;4449;50.872;4.714;2024-03-29T04:30:00;1.58;;;1.30;;
8825;SDS011;4449;50.872;4.714;2024-03-29T04:32:28;2.47;;;1.25;;
8825;SDS011;4449;50.872;4.714;2024-03-29T04:34:56;1.53;;;1.43;;
8825;SDS011;4449;50.872;4.714;2024-03-29T04:37:23;1.88;;;1.60;;
8825;SDS011;4449;50.872;4.714;2024-03-29T04:39:53;1.50;;;1.40;;
8825;SDS011;4449;50.872;4.714;2024-03-29T04:42:21;1.60;;;1.50;;
8825;SDS011;4449;50.872;4.714;2024-03-29T04:44:48;2.53;;;1.70;;
8825;SDS011;4449;50.872;4.714;2024-03-29T04:47:16;2.58;;;1.52;;
8825;SDS011;4449;50.872;4.714;2024-03-29T04:49:44;2.75;;;1.80;;
8825;SDS011;4449;50.872;4.714;2024-03-29T04:52:12;1.60;;;1.50;;
8825;SDS011;4449;50.872;4.714;2024-03-29T04:54:40;2.03;;;1.57;;
8825;SDS011;4449;50.872;4.714;2024-03-29T04:57:10;1.70;;;1.60;;
8825;SDS011;4449;50.872;4.714;2024-03-29T04:59:38;2.70;;;1.50;;
8825;SDS011;4449;50.872;4.714;2024-03-29T05:02:06;1.80;;;1.70;;
8825;SDS011;4449;50.872;4.714;2024-03-29T05:04:34;1.90;;;1.60;;
8825;SDS011;4449;50.872;4.714;2024-03-29T05:07:02;4.40;;;1.83;;
8825;SDS011;4449;50.872;4.714;2024-03-29T05:09:30;1.60;;;1.50;;
8825;SDS011;4449;50.872;4.714;2024-03-29T05:11:58;3.33;;;1.60;;
8825;SDS011;4449;50.872;4.714;2024-03-29T05:14:27;1.80;;;1.70;;
8825;SDS011;4449;50.872;4.714;2024-03-29T05:16:55;1.80;;;1.70;;
8825;SDS011;4449;50.872;4.714;2024-03-29T05:19:23;1.58;;;1.48;;
8825;SDS011;4449;50.872;4.714;2024-03-29T05:21:51;2.30;;;1.60;;
8825;SDS011;4449;50.872;4.714;2024-03-29T05:24:18;1.80;;;1.70;;
8825;SDS011;4449;50.872;4.714;2024-03-29T05:26:46;2.13;;;1.80;;
8825;SDS011;4449;50.872;4.714;2024-03-29T05:29:14;3.33;;;1.95;;
8825;SDS011;4449;50.872;4.714;2024-03-29T05:31:43;2.95;;;2.00;;
8825;SDS011;4449;50.872;4.714;2024-03-29T05:34:11;2.08;;;1.88;;
8825;SDS011;4449;50.872;4.714;2024-03-29T05:36:40;2.28;;;1.77;;
8825;SDS011;4449;50.872;4.714;2024-03-29T05:39:09;2.72;;;1.88;;
8825;SDS011;4449;50.872;4.714;2024-03-29T05:41:37;4.53;;;1.98;;
8825;SDS011;4449;50.872;4.714;2024-03-29T05:44:05;2.65;;;1.77;;
8825;SDS011;4449;50.872;4.714;2024-03-29T05:46:33;1.98;;;1.75;;
8825;SDS011;4449;50.872;4.714;2024-03-29T05:49:02;3.47;;;1.70;;
8825;SDS011;4449;50.872;4.714;2024-03-29T05:51:30;2.90;;;2.08;;
8825;SDS011;4449;50.872;4.714;2024-03-29T05:53:59;3.08;;;2.10;;
8825;SDS011;4449;50.872;4.714;2024-03-29T05:56:29;2.97;;;2.00;;
8825;SDS011;4449;50.872;4.714;2024-03-29T05:58:57;3.42;;;2.03;;
8825;SDS011;4449;50.872;4.714;2024-03-29T06:01:25;2.03;;;1.90;;
8825;SDS011;4449;50.872;4.714;2024-03-29T06:03:53;2.67;;;1.88;;
8825;SDS011;4449;50.872;4.714;2024-03-29T06:06:23;2.25;;;1.70;;
8825;SDS011;4449;50.872;4.714;2024-03-29T06:08:51;2.70;;;1.90;;
8825;SDS011;4449;50.872;4.714;2024-03-29T06:11:19;1.90;;;1.80;;
8825;SDS011;4449;50.872;4.714;2024-03-29T06:13:47;2.83;;;1.75;;
8825;SDS011;4449;50.872;4.714;2024-03-29T06:16:32;2.65;;;1.77;;
8825;SDS011;4449;50.872;4.714;2024-03-29T06:19:17;2.78;;;1.95;;
8825;SDS011;4449;50.872;4.714;2024-03-29T06:21:46;1.70;;;1.55;;
8825;SDS011;4449;50.872;4.714;2024-03-29T06:24:14;1.77;;;1.67;;
8825;SDS011;4449;50.872;4.714;2024-03-29T06:26:42;1.90;;;1.63;;
8825;SDS011;4449;50.872;4.714;2024-03-29T06:29:10;3.55;;;3.25;;
8825;SDS011;4449;50.872;4.714;2024-03-29T06:31:37;3.55;;;2.03;;
8825;SDS011;4449;50.872;4.714;2024-03-29T06:34:05;1.95;;;1.67;;
8825;SDS011;4449;50.872;4.714;2024-03-29T06:36:33;2.22;;;1.80;;
8825;SDS011;4449;50.872;4.714;2024-03-29T06:39:04;5.30;;;3.72;;
8825;SDS011;4449;50.872;4.714;2024-03-29T06:41:31;3.33;;;1.80;;
8825;SDS011;4449;50.872;4.714;2024-03-29T06:43:59;3.65;;;1.98;;
8825;SDS011;4449;50.872;4.714;2024-03-29T06:46:26;4.28;;;2.30;;
8825;SDS011;4449;50.872;4.714;2024-03-29T06:48:54;9.55;;;3.10;;
8825;SDS011;4449;50.872;4.714;2024-03-29T06:51:22;5.13;;;2.60;;
8825;SDS011;4449;50.872;4.714;2024-03-29T06:53:50;6.55;;;2.40;;
8825;SDS011;4449;50.872;4.714;2024-03-29T06:56:19;4.15;;;2.30;;
8825;SDS011;4449;50.872;4.714;2024-03-29T06:58:47;2.63;;;2.00;;
8825;SDS011;4449;50.872;4.714;2024-03-29T07:01:15;2.83;;;1.77;;
8825;SDS011;4449;50.872;4.714;2024-03-29T07:03:42;2.83;;;2.63;;
8825;SDS011;4449;50.872;4.714;2024-03-29T07:06:10;2.10;;;2.00;;
8825;SDS011;4449;50.872;4.714;2024-03-29T07:08:38;2.80;;;1.85;;
8825;SDS011;4449;50.872;4.714;2024-03-29T07:11:06;2.00;;;1.63;;
8825;SDS011;4449;50.872;4.714;2024-03-29T07:13:36;1.95;;;1.67;;
8825;SDS011;4449;50.872;4.714;2024-03-29T07:16:04;1.70;;;1.60;;
8825;SDS011;4449;50.872;4.714;2024-03-29T07:18:32;1.95;;;1.85;;
8825;SDS011;4449;50.872;4.714;2024-03-29T07:21:00;1.98;;;1.65;;
8825;SDS011;4449;50.872;4.714;2024-03-29T07:23:28;2.47;;;1.70;;
8825;SDS011;4449;50.872;4.714;2024-03-29T07:25:59;3.03;;;2.15;;
8825;SDS011;4449;50.872;4.714;2024-03-29T07:28:27;2.17;;;2.00;;
8825;SDS011;4449;50.872;4.714;2024-03-29T07:30:56;2.28;;;2.00;;
8825;SDS011;4449;50.872;4.714;2024-03-29T07:33:24;2.15;;;1.50;;
8825;SDS011;4449;50.872;4.714;2024-03-29T07:35:53;2.33;;;1.70;;
8825;SDS011;4449;50.872;4.714;2024-03-29T07:38:21;1.85;;;1.75;;
8825;SDS011;4449;50.872;4.714;2024-03-29T07:40:49;2.05;;;1.95;;
8825;SDS011;4449;50.872;4.714;2024-03-29T07:45:45;3.00;;;2.20;;
8825;SDS011;4449;50.872;4.714;2024-03-29T07:48:15;2.63;;;2.20;;
8825;SDS011;4449;50.872;4.714;2024-03-29T07:50:43;2.50;;;2.30;;
8825;SDS011;4449;50.872;4.714;2024-03-29T07:53:11;2.70;;;2.15;;
8825;SDS011;4449;50.872;4.714;2024-03-29T07:55:39;2.50;;;2.30;;
8825;SDS011;4449;50.872;4.714;2024-03-29T07:58:07;2.55;;;2.35;;
8825;SDS011;4449;50.872;4.714;2024-03-29T08:00:38;2.45;;;2.25;;
8825;SDS011;4449;50.872;4.714;2024-03-29T08:03:07;2.88;;;2.33;;
8825;SDS011;4449;50.872;4.714;2024-03-29T08:05:36;3.35;;;2.17;;
8825;SDS011;4449;50.872;4.714;2024-03-29T08:08:06;3.13;;;2.30;;
8825;SDS011;4449;50.872;4.714;2024-03-29T08:10:33;2.87;;;2.67;;
8825;SDS011;4449;50.872;4.714;2024-03-29T08:13:01;3.38;;;2.60;;
8825;SDS011;4449;50.872;4.714;2024-03-29T08:15:29;3.45;;;2.38;;
8825;SDS011;4449;50.872;4.714;2024-03-29T08:17:56;2.42;;;2.33;;
8825;SDS011;4449;50.872;4.714;2024-03-29T08:20:24;3.30;;;2.38;;
8825;SDS011;4449;50.872;4.714;2024-03-29T08:22:56;2.63;;;2.42;;
8825;SDS011;4449;50.872;4.714;2024-03-29T08:25:25;2.53;;;2.33;;
8825;SDS011;4449;50.872;4.714;2024-03-29T08:27:53;3.90;;;2.60;;
8825;SDS011;4449;50.872;4.714;2024-03-29T08:30:24;2.80;;;2.60;;
8825;SDS011;4449;50.872;4.714;2024-03-29T08:32:51;2.50;;;2.30;;
8825;SDS011;4449;50.872;4.714;2024-03-29T08:35:19;4.07;;;2.50;;
8825;SDS011;4449;50.872;4.714;2024-03-29T08:37:47;3.42;;;2.50;;
8825;SDS011;4449;50.872;4.714;2024-03-29T08:40:18;2.80;;;2.53;;
8825;SDS011;4449;50.872;4.714;2024-03-29T08:42:47;3.25;;;2.58;;
8825;SDS011;4449;50.872;4.714;2024-03-29T08:45:15;2.97;;;2.70;;
8825;SDS011;4449;50.872;4.714;2024-03-29T08:47:43;3.30;;;2.50;;
8825;SDS011;4449;50.872;4.714;2024-03-29T08:50:11;4.00;;;2.90;;
8825;SDS011;4449;50.872;4.714;2024-03-29T08:52:39;3.77;;;2.37;;
8825;SDS011;4449;50.872;4.714;2024-03-29T08:55:07;2.85;;;2.20;;
8825;SDS011;4449;50.872;4.714;2024-03-29T08:57:36;2.15;;;2.00;;
8825;SDS011;4449;50.872;4.714;2024-03-29T09:00:05;2.30;;;2.00;;
8825;SDS011;4449;50.872;4.714;2024-03-29T09:02:33;3.28;;;2.35;;
8825;SDS011;4449;50.872;4.714;2024-03-29T09:05:01;3.70;;;2.10;;
8825;SDS011;4449;50.872;4.714;2024-03-29T09:07:29;2.10;;;2.00;;
8825;SDS011;4449;50.872;4.714;2024-03-29T09:09:57;1.90;;;1.80;;
8825;SDS011;4449;50.872;4.714;2024-03-29T09:12:25;2.30;;;1.77;;
8825;SDS011;4449;50.872;4.714;2024-03-29T09:14:54;1.70;;;1.60;;
8825;SDS011;4449;50.872;4.714;2024-03-29T09:17:22;4.23;;;1.80;;
8825;SDS011;4449;50.872;4.714;2024-03-29T09:19:50;2.00;;;1.80;;
8825;SDS011;4449;50.872;4.714;2024-03-29T09:34:46;1.50;;;1.47;;
8825;SDS011;4449;50.872;4.714;2024-03-29T09:37:14;2.93;;;1.43;;
8825;SDS011;4449;50.872;4.714;2024-03-29T09:39:43;2.20;;;1.57;;
8825;SDS011;4449;50.872;4.714;2024-03-29T09:42:11;1.40;;;1.30;;
8825;SDS011;4449;50.872;4.714;2024-03-29T09:44:43;2.80;;;1.27;;
8825;SDS011;4449;50.872;4.714;2024-03-29T09:47:11;1.27;;;1.20;;
8825;SDS011;4449;50.872;4.714;2024-03-29T09:49:41;1.90;;;1.40;;
8825;SDS011;4449;50.872;4.714;2024-03-29T09:52:11;1.37;;;1.30;;
8825;SDS011;4449;50.872;4.714;2024-03-29T09:54:39;1.33;;;1.30;;
8825;SDS011;4449;50.872;4.714;2024-03-29T09:57:07;1.40;;;1.30;;
8825;SDS011;4449;50.872;4.714;2024-03-29T09:59:35;1.90;;;1.80;;
8825;SDS011;4449;50.872;4.714;2024-03-29T10:02:04;1.40;;;1.40;;
8825;SDS011;4449;50.872;4.714;2024-03-29T10:04:36;2.30;;;1.33;;
8825;SDS011;4449;50.872;4.714;2024-03-29T10:07:03;1.20;;;1.20;;
8825;SDS011;4449;50.872;4.714;2024-03-29T10:09:33;1.30;;;1.20;;
8825;SDS011;4449;50.872;4.714;2024-03-29T10:12:03;1.33;;;1.33;;
8825;SDS011;4449;50.872;4.714;2024-03-29T10:14:31;1.40;;;1.37;;
8825;SDS011;4449;50.872;4.714;2024-03-29T10:16:59;1.40;;;1.40;;
8825;SDS011;4449;50.872;4.714;2024-03-29T10:19:27;1.30;;;1.30;;
8825;SDS011;4449;50.872;4.714;2024-03-29T10:22:05;1.40;;;1.40;;
8825;SDS011;4449;50.872;4.714;2024-03-29T10:24:34;1.63;;;1.33;;
8825;SDS011;4449;50.872;4.714;2024-03-29T10:27:02;1.43;;;1.37;;
8825;SDS011;4449;50.872;4.714;2024-03-29T10:29:30;2.60;;;1.27;;
8825;SDS011;4449;50.872;4.714;2024-03-29T10:31:57;3.30;;;1.83;;
8825;SDS011;4449;50.872;4.714;2024-03-29T10:34:25;1.30;;;1.20;;
8825;SDS011;4449;50.872;4.714;2024-03-29T10:36:55;1.17;;;1.17;;
8825;SDS011;4449;50.872;4.714;2024-03-29T10:39:23;1.40;;;1.40;;
8825;SDS011;4449;50.872;4.714;2024-03-29T10:41:52;3.50;;;1.40;;
8825;SDS011;4449;50.872;4.714;2024-03-29T10:44:21;1.30;;;1.30;;
8825;SDS011;4449;50.872;4.714;2024-03-29T10:46:50;2.20;;;1.97;;
8825;SDS011;4449;50.872;4.714;2024-03-29T10:49:17;1.60;;;1.50;;
8825;SDS011;4449;50.872;4.714;2024-03-29T10:51:45;1.20;;;1.13;;
8825;SDS011;4449;50.872;4.714;2024-03-29T10:54:13;1.40;;;1.30;;
8825;SDS011;4449;50.872;4.714;2024-03-29T10:56:42;1.27;;;1.27;;
8825;SDS011;4449;50.872;4.714;2024-03-29T10:59:18;1.00;;;1.00;;
8825;SDS011;4449;50.872;4.714;2024-03-29T11:01:50;1.80;;;1.23;;
8825;SDS011;4449;50.872;4.714;2024-03-29T11:04:20;1.40;;;1.30;;
8825;SDS011;4449;50.872;4.714;2024-03-29T11:06:49;1.17;;;1.17;;
8825;SDS011;4449;50.872;4.714;2024-03-29T11:09:19;1.47;;;1.13;;
8825;SDS011;4449;50.872;4.714;2024-03-29T11:11:49;1.70;;;1.20;;
8825;SDS011;4449;50.872;4.714;2024-03-29T11:14:20;2.10;;;2.00;;
8825;SDS011;4449;50.872;4.714;2024-03-29T11:16:48;1.20;;;1.20;;
8825;SDS011;4449;50.872;4.714;2024-03-29T11:19:20;1.30;;;1.30;;
8825;SDS011;4449;50.872;4.714;2024-03-29T12:19:51;1.23;;;1.17;;
8825;SDS011;4449;50.872;4.714;2024-03-29T12:22:30;0.83;;;0.83;;
8825;SDS011;4449;50.872;4.714;2024-03-29T12:24:58;1.00;;;1.00;;
8825;SDS011;4449;50.872;4.714;2024-03-29T12:27:26;1.13;;;0.87;;
8825;SDS011;4449;50.872;4.714;2024-03-29T12:29:53;1.60;;;0.80;;
8825;SDS011;4449;50.872;4.714;2024-03-29T12:32:22;0.90;;;0.90;;
8825;SDS011;4449;50.872;4.714;2024-03-29T12:34:53;0.80;;;0.80;;
8825;SDS011;4449;50.872;4.714;2024-03-29T12:37:21;0.90;;;0.87;;
8825;SDS011;4449;50.872;4.714;2024-03-29T12:39:51;1.03;;;0.90;;
8825;SDS011;4449;50.872;4.714;2024-03-29T12:42:21;2.43;;;0.90;;
8825;SDS011;4449;50.872;4.714;2024-03-29T12:44:49;0.97;;;0.97;;
8825;SDS011;4449;50.872;4.714;2024-03-29T12:47:17;0.90;;;0.90;;
8825;SDS011;4449;50.872;4.714;2024-03-29T12:49:45;1.00;;;1.00;;
8825;SDS011;4449;50.872;4.714;2024-03-29T12:52:14;1.00;;;1.00;;
8825;SDS011;4449;50.872;4.714;2024-03-29T12:54:42;1.00;;;1.00;;
8825;SDS011;4449;50.872;4.714;2024-03-29T12:57:10;0.70;;;0.70;;
8825;SDS011;4449;50.872;4.714;2024-03-29T12:59:37;0.90;;;0.90;;
8825;SDS011;4449;50.872;4.714;2024-03-29T13:02:05;0.90;;;0.90;;
8825;SDS011;4449;50.872;4.714;2024-03-29T13:04:33;0.90;;;0.90;;
8825;SDS011;4449;50.872;4.714;2024-03-29T13:07:01;1.00;;;1.00;;
8825;SDS011;4449;50.872;4.714;2024-03-29T13:09:30;1.10;;;1.10;;
8825;SDS011;4449;50.872;4.714;2024-03-29T13:11:58;1.27;;;0.90;;
8825;SDS011;4449;50.872;4.714;2024-03-29T13:14:26;1.00;;;1.00;;
8825;SDS011;4449;50.872;4.714;2024-03-29T13:16:54;0.93;;;0.80;;
8825;SDS011;4449;50.872;4.714;2024-03-29T13:19:21;1.00;;;1.00;;
8825;SDS011;4449;50.872;4.714;2024-03-29T13:21:48;0.93;;;0.93;;
8825;SDS011;4449;50.872;4.714;2024-03-29T13:24:16;1.00;;;1.00;;
8825;SDS011;4449;50.872;4.714;2024-03-29T13:26:46;2.07;;;1.40;;
8825;SDS011;4449;50.872;4.714;2024-03-29T13:29:13;1.10;;;1.10;;
8825;SDS011;4449;50.872;4.714;2024-03-29T13:31:41;1.03;;;1.03;;
8825;SDS011;4449;50.872;4.714;2024-03-29T13:34:08;4.27;;;1.17;;
8825;SDS011;4449;50.872;4.714;2024-03-29T13:36:38;1.17;;;1.17;;
8825;SDS011;4449;50.872;4.714;2024-03-29T13:39:07;1.03;;;1.00;;
8825;SDS011;4449;50.872;4.714;2024-03-29T13:41:36;1.20;;;1.20;;
8825;SDS011;4449;50.872;4.714;2024-03-29T13:44:06;0.97;;;0.97;;
8825;SDS011;4449;50.872;4.714;2024-03-29T13:46:34;1.40;;;1.20;;
8825;SDS011;4449;50.872;4.714;2024-03-29T13:49:02;3.90;;;1.40;;
8825;SDS011;4449;50.872;4.714;2024-03-29T13:51:30;1.40;;;1.30;;
8825;SDS011;4449;50.872;4.714;2024-03-29T13:53:58;2.33;;;1.53;;
8825;SDS011;4449;50.872;4.714;2024-03-29T13:56:26;1.00;;;1.00;;
8825;SDS011;4449;50.872;4.714;2024-03-29T13:58:54;1.23;;;1.17;;
8825;SDS011;4449;50.872;4.714;2024-03-29T14:01:23;0.90;;;0.90;;
8825;SDS011;4449;50.872;4.714;2024-03-29T14:03:51;1.90;;;1.20;;
8825;SDS011;4449;50.872;4.714;2024-03-29T14:06:18;1.10;;;1.10;;
8825;SDS011;4449;50.872;4.714;2024-03-29T14:08:46;1.10;;;1.10;;
8825;SDS011;4449;50.872;4.714;2024-03-29T14:11:14;1.10;;;1.10;;
8825;SDS011;4449;50.872;4.714;2024-03-29T14:13:44;1.10;;;1.10;;
8825;SDS011;4449;50.872;4.714;2024-03-29T14:16:14;0.83;;;0.83;;
8825;SDS011;4449;50.872;4.714;2024-03-29T14:18:44;2.43;;;1.10;;
8825;SDS011;4449;50.872;4.714;2024-03-29T14:21:11;1.00;;;1.00;;
8825;SDS011;4449;50.872;4.714;2024-03-29T14:23:38;1.30;;;1.20;;
8825;SDS011;4449;50.872;4.714;2024-03-29T14:26:06;1.40;;;1.30;;
8825;SDS011;4449;50.872;4.714;2024-03-29T14:28:34;1.40;;;1.40;;
8825;SDS011;4449;50.872;4.714;2024-03-29T14:31:02;1.40;;;1.40;;
8825;SDS011;4449;50.872;4.714;2024-03-29T14:33:30;2.80;;;1.20;;
8825;SDS011;4449;50.872;4.714;2024-03-29T14:36:00;1.13;;;1.13;;
8825;SDS011;4449;50.872;4.714;2024-03-29T14:38:28;1.40;;;1.40;;
8825;SDS011;4449;50.872;4.714;2024-03-29T14:40:56;1.10;;;1.10;;
8825;SDS011;4449;50.872;4.714;2024-03-29T14:43:24;3.70;;;1.30;;
8825;SDS011;4449;50.872;4.714;2024-03-29T14:45:52;1.17;;;1.17;;
8825;SDS011;4449;50.872;4.714;2024-03-29T14:48:20;1.40;;;1.30;;
8825;SDS011;4449;50.872;4.714;2024-03-29T14:50:50;2.00;;;1.53;;
8825;SDS011;4449;50.872;4.714;2024-03-29T14:53:21;1.10;;;1.10;;
8825;SDS011;4449;50.872;4.714;2024-03-29T14:55:49;1.10;;;1.10;;
8825;SDS011;4449;50.872;4.714;2024-03-29T14:58:17;1.43;;;1.43;;
8825;SDS011;4449;50.872;4.714;2024-03-29T15:00:45;2.10;;;1.30;;
8825;SDS011;4449;50.872;4.714;2024-03-29T15:03:13;2.77;;;1.57;;
8825;SDS011;4449;50.872;4.714;2024-03-29T15:05:41;1.43;;;1.43;;
8825;SDS011;4449;50.872;4.714;2024-03-29T15:08:09;2.77;;;1.47;;
8825;SDS011;4449;50.872;4.714;2024-03-29T15:10:43;1.77;;;1.30;;
8825;SDS011;4449;50.872;4.714;2024-03-29T15:13:11;1.83;;;1.30;;
8825;SDS011;4449;50.872;4.714;2024-03-29T15:15:39;1.40;;;1.40;;
8825;SDS011;4449;50.872;4.714;2024-03-29T15:18:07;3.70;;;1.60;;
8825;SDS011;4449;50.872;4.714;2024-03-29T15:20:35;1.47;;;1.37;;
8825;SDS011;4449;50.872;4.714;2024-03-29T15:23:02;1.30;;;1.30;;
8825;SDS011;4449;50.872;4.714;2024-03-29T15:25:33;1.30;;;1.30;;
8825;SDS011;4449;50.872;4.714;2024-03-29T15:28:02;1.50;;;1.40;;
8825;SDS011;4449;50.872;4.714;2024-03-29T15:30:48;1.37;;;1.37;;
8825;SDS011;4449;50.872;4.714;2024-03-29T15:33:19;1.40;;;1.30;;
8825;SDS011;4449;50.872;4.714;2024-03-29T15:50:19;2.07;;;1.40;;
8825;SDS011;4449;50.872;4.714;2024-03-29T15:52:47;1.40;;;1.30;;
8825;SDS011;4449;50.872;4.714;2024-03-29T15:55:15;1.27;;;1.27;;
8825;SDS011;4449;50.872;4.714;2024-03-29T15:57:42;1.73;;;1.20;;
8825;SDS011;4449;50.872;4.714;2024-03-29T16:00:10;1.20;;;1.20;;
8825;SDS011;4449;50.872;4.714;2024-03-29T16:02:45;2.00;;;1.27;;
8825;SDS011;4449;50.872;4.714;2024-03-29T16:05:13;1.03;;;1.03;;
8825;SDS011;4449;50.872;4.714;2024-03-29T16:07:44;1.00;;;1.00;;
8825;SDS011;4449;50.872;4.714;2024-03-29T16:10:12;1.20;;;1.20;;
8825;SDS011;4449;50.872;4.714;2024-03-29T16:12:40;1.87;;;1.53;;
8825;SDS011;4449;50.872;4.714;2024-03-29T16:15:09;6.80;;;1.83;;
8825;SDS011;4449;50.872;4.714;2024-03-29T16:17:36;2.30;;;1.33;;
8825;SDS011;4449;50.872;4.714;2024-03-29T16:20:05;2.93;;;1.47;;
8825;SDS011;4449;50.872;4.714;2024-03-29T16:22:32;1.80;;;1.23;;
8825;SDS011;4449;50.872;4.714;2024-03-29T16:25:01;1.63;;;1.20;;
8825;SDS011;4449;50.872;4.714;2024-03-29T16:27:28;1.37;;;1.37;;
8825;SDS011;4449;50.872;4.714;2024-03-29T16:29:56;1.60;;;1.10;;
8825;SDS011;4449;50.872;4.714;2024-03-29T16:32:23;2.10;;;1.90;;
8825;SDS011;4449;50.872;4.714;2024-03-29T16:34:53;1.10;;;1.10;;
8825;SDS011;4449;50.872;4.714;2024-03-29T16:37:20;2.73;;;1.20;;
8825;SDS011;4449;50.872;4.714;2024-03-29T16:39:48;1.10;;;1.10;;
8825;SDS011;4449;50.872;4.714;2024-03-29T16:42:16;1.10;;;1.10;;
8825;SDS011;4449;50.872;4.714;2024-03-29T16:44:44;1.60;;;1.23;;
8825;SDS011;4449;50.872;4.714;2024-03-29T16:47:11;1.87;;;1.70;;
8825;SDS011;4449;50.872;4.714;2024-03-29T16:49:38;2.67;;;1.20;;
8825;SDS011;4449;50.872;4.714;2024-03-29T16:52:05;2.27;;;1.27;;